sensor_id;sensor_type;location;lat;lon;timestamp;temperature;humidity
21417;DHT22;10869;52.238;10.716;2023-02-18T04:05:26;6.70;99.90
21417;DHT22;10869;52.238;10.716;2023-02-18T04:07:53;6.70;99.90
21417;DHT22;10869;52.238;10.716;2023-02-18T04:10:19;6.70;99.90
21417;DHT22;10869;52.238;10.716;2023-02-18T04:12:46;6.80;99.90
21417;DHT22;10869;52.238;10.716;2023-02-18T04:15:11;6.80;99.90
21417;DHT22;10869;52.238;10.716;2023-02-18T04:17:38;6.80;99.90
21417;DHT22;10869;52.238;10.716;2023-02-18T04:20:04;6.90;99.90
21417;DHT22;10869;52.238;10.716;2023-02-18T04:22:30;6.90;99.90
21417;DHT22;10869;52.238;10.716;2023-02-18T04:24:56;6.90;99.90
21417;DHT22;10869;52.238;10.716;2023-02-18T04:27:22;6.90;99.90
21417;DHT22;10869;52.238;10.716;2023-02-18T04:29:48;6.90;99.90
21417;DHT22;10869;52.238;10.716;2023-02-18T04:32:14;6.90;99.90
21417;DHT22;10869;52.238;10.716;2023-02-18T04:34:39;7.00;99.90
21417;DHT22;10869;52.238;10.716;2023-02-18T04:37:05;7.00;99.90
21417;DHT22;10869;52.238;10.716;2023-02-18T04:39:31;7.00;99.90
21417;DHT22;10869;52.238;10.716;2023-02-18T04:41:56;7.00;99.90
21417;DHT22;10869;52.238;10.716;2023-02-18T04:44:22;7.00;99.90
21417;DHT22;10869;52.238;10.716;2023-02-18T04:46:48;7.00;99.90
21417;DHT22;10869;52.238;10.716;2023-02-18T04:49:13;7.00;99.90
21417;DHT22;10869;52.238;10.716;2023-02-18T04:51:39;7.00;99.90
21417;DHT22;10869;52.238;10.716;2023-02-18T04:54:05;7.00;99.90
21417;DHT22;10869;52.238;10.716;2023-02-18T04:56:30;6.90;99.90
21417;DHT22;10869;52.238;10.716;2023-02-18T04:58:56;7.00;99.90
21417;DHT22;10869;52.238;10.716;2023-02-18T05:01:22;7.00;99.90
21417;DHT22;10869;52.238;10.716;2023-02-18T05:03:47;6.90;99.90
21417;DHT22;10869;52.238;10.716;2023-02-18T05:06:13;6.90;99.90
21417;DHT22;10869;52.238;10.716;2023-02-18T05:08:39;6.90;99.90
21417;DHT22;10869;52.238;10.716;2023-02-18T05:11:06;6.90;99.90
21417;DHT22;10869;52.238;10.716;2023-02-18T05:13:32;6.80;99.90
21417;DHT22;10869;52.238;10.716;2023-02-18T05:15:58;6.80;99.90
21417;DHT22;10869;52.238;10.716;2023-02-18T05:18:24;6.80;99.90
21417;DHT22;10869;52.238;10.716;2023-02-18T05:20:49;6.80;99.90
21417;DHT22;10869;52.238;10.716;2023-02-18T05:23:15;6.70;99.90
21417;DHT22;10869;52.238;10.716;2023-02-18T05:25:43;6.70;99.90
21417;DHT22;10869;52.238;10.716;2023-02-18T05:28:08;6.70;99.90
21417;DHT22;10869;52.238;10.716;2023-02-18T05:30:34;6.70;99.90
21417;DHT22;10869;52.238;10.716;2023-02-18T05:33:00;6.70;99.90
21417;DHT22;10869;52.238;10.716;2023-02-18T05:35:25;6.60;99.90
21417;DHT22;10869;52.238;10.716;2023-02-18T05:37:51;6.60;99.90
21417;DHT22;10869;52.238;10.716;2023-02-18T05:40:17;6.60;99.90
21417;DHT22;10869;52.238;10.716;2023-02-18T05:42:42;6.60;99.90
21417;DHT22;10869;52.238;10.716;2023-02-18T05:45:09;6.60;99.90
21417;DHT22;10869;52.238;10.716;2023-02-18T05:47:34;6.60;99.90
21417;DHT22;10869;52.238;10.716;2023-02-18T05:50:00;6.60;99.90
21417;DHT22;10869;52.238;10.716;2023-02-18T05:52:26;6.50;99.90
21417;DHT22;10869;52.238;10.716;2023-02-18T05:54:52;6.60;99.90
21417;DHT22;10869;52.238;10.716;2023-02-18T05:57:17;6.60;99.90
21417;DHT22;10869;52.238;10.716;2023-02-18T05:59:43;6.50;99.90
21417;DHT22;10869;52.238;10.716;2023-02-18T06:02:09;6.60;99.90
21417;DHT22;10869;52.238;10.716;2023-02-18T06:04:35;6.60;99.90
21417;DHT22;10869;52.238;10.716;2023-02-18T06:10:23;6.60;99.90
21417;DHT22;10869;52.238;10.716;2023-02-18T06:12:48;6.50;99.90
21417;DHT22;10869;52.238;10.716;2023-02-18T06:15:14;6.50;99.90
21417;DHT22;10869;52.238;10.716;2023-02-18T06:17:40;6.50;99.90
21417;DHT22;10869;52.238;10.716;2023-02-18T06:20:06;6.50;99.90
21417;DHT22;10869;52.238;10.716;2023-02-18T06:22:33;6.50;99.90
21417;DHT22;10869;52.238;10.716;2023-02-18T06:24:59;6.60;99.90
21417;DHT22;10869;52.238;10.716;2023-02-18T06:27:24;6.60;99.90
21417;DHT22;10869;52.238;10.716;2023-02-18T06:29:50;6.50;99.90
21417;DHT22;10869;52.238;10.716;2023-02-18T06:32:16;6.60;99.90
21417;DHT22;10869;52.238;10.716;2023-02-18T06:34:42;6.60;99.90
21417;DHT22;10869;52.238;10.716;2023-02-18T06:37:07;6.60;99.90
21417;DHT22;10869;52.238;10.716;2023-02-18T06:39:33;6.60;99.90
21417;DHT22;10869;52.238;10.716;2023-02-18T06:41:59;6.60;99.90
21417;DHT22;10869;52.238;10.716;2023-02-18T06:44:26;6.60;99.90
21417;DHT22;10869;52.238;10.716;2023-02-18T06:49:27;6.60;99.90
21417;DHT22;10869;52.238;10.716;2023-02-18T06:51:57;6.60;99.90
21417;DHT22;10869;52.238;10.716;2023-02-18T06:54:24;6.60;99.90
21417;DHT22;10869;52.238;10.716;2023-02-18T06:56:52;6.70;99.90
21417;DHT22;10869;52.238;10.716;2023-02-18T06:59:18;6.70;99.90
21417;DHT22;10869;52.238;10.716;2023-02-18T07:01:44;6.70;99.90
21417;DHT22;10869;52.238;10.716;2023-02-18T07:04:10;6.70;99.90
21417;DHT22;10869;52.238;10.716;2023-02-18T07:06:44;6.70;99.90
21417;DHT22;10869;52.238;10.716;2023-02-18T07:09:09;6.80;99.90
21417;DHT22;10869;52.238;10.716;2023-02-18T07:11:35;6.70;99.90
21417;DHT22;10869;52.238;10.716;2023-02-18T07:14:01;6.80;99.90
21417;DHT22;10869;52.238;10.716;2023-02-18T07:16:26;6.80;99.90
21417;DHT22;10869;52.238;10.716;2023-02-18T07:22:14;6.80;99.90
21417;DHT22;10869;52.238;10.716;2023-02-18T07:28:02;6.90;99.90
21417;DHT22;10869;52.238;10.716;2023-02-18T07:33:50;7.00;99.90
21417;DHT22;10869;52.238;10.716;2023-02-18T07:36:16;7.00;99.90
21417;DHT22;10869;52.238;10.716;2023-02-18T07:42:03;7.00;99.90
21417;DHT22;10869;52.238;10.716;2023-02-18T07:47:51;7.10;99.90
21417;DHT22;10869;52.238;10.716;2023-02-18T07:50:17;7.10;99.90
21417;DHT22;10869;52.238;10.716;2023-02-18T07:52:43;7.20;99.90
21417;DHT22;10869;52.238;10.716;2023-02-18T07:55:11;7.20;99.90
21417;DHT22;10869;52.238;10.716;2023-02-18T07:57:37;7.20;99.90
21417;DHT22;10869;52.238;10.716;2023-02-18T08:00:22;7.30;99.90
21417;DHT22;10869;52.238;10.716;2023-02-18T08:02:47;7.30;99.90
21417;DHT22;10869;52.238;10.716;2023-02-18T08:05:19;7.40;99.90
21417;DHT22;10869;52.238;10.716;2023-02-18T08:07:49;7.40;99.90
21417;DHT22;10869;52.238;10.716;2023-02-18T08:10:15;7.50;99.90
21417;DHT22;10869;52.238;10.716;2023-02-18T08:12:44;7.50;99.90
21417;DHT22;10869;52.238;10.716;2023-02-18T08:18:32;7.70;99.90
21417;DHT22;10869;52.238;10.716;2023-02-18T08:21:03;7.70;99.90
21417;DHT22;10869;52.238;10.716;2023-02-18T08:23:29;7.70;99.90
21417;DHT22;10869;52.238;10.716;2023-02-18T08:25:57;7.80;99.90
21417;DHT22;10869;52.238;10.716;2023-02-18T08:28:32;7.80;99.90
21417;DHT22;10869;52.238;10.716;2023-02-18T08:31:02;7.90;99.90
21417;DHT22;10869;52.238;10.716;2023-02-18T08:36:52;7.90;99.90
21417;DHT22;10869;52.238;10.716;2023-02-18T08:42:39;7.90;99.90
21417;DHT22;10869;52.238;10.716;2023-02-18T08:45:05;8.00;99.90
21417;DHT22;10869;52.238;10.716;2023-02-18T08:50:53;8.10;99.90
21417;DHT22;10869;52.238;10.716;2023-02-18T08:56:41;8.20;99.90
21417;DHT22;10869;52.238;10.716;2023-02-18T08:59:07;8.20;99.90
21417;DHT22;10869;52.238;10.716;2023-02-18T09:01:33;8.30;99.90
21417;DHT22;10869;52.238;10.716;2023-02-18T09:03:59;8.40;99.90
21417;DHT22;10869;52.238;10.716;2023-02-18T09:06:24;8.40;99.90
21417;DHT22;10869;52.238;10.716;2023-02-18T09:08:50;8.50;99.90
21417;DHT22;10869;52.238;10.716;2023-02-18T09:14:38;8.60;99.90
21417;DHT22;10869;52.238;10.716;2023-02-18T09:17:04;8.60;99.90
21417;DHT22;10869;52.238;10.716;2023-02-18T09:19:30;8.70;99.90
21417;DHT22;10869;52.238;10.716;2023-02-18T09:22:00;8.70;99.90
21417;DHT22;10869;52.238;10.716;2023-02-18T09:24:28;8.80;99.90
21417;DHT22;10869;52.238;10.716;2023-02-18T09:26:56;8.90;99.90
21417;DHT22;10869;52.238;10.716;2023-02-18T09:29:22;9.00;99.90
21417;DHT22;10869;52.238;10.716;2023-02-18T09:31:48;9.00;99.90
21417;DHT22;10869;52.238;10.716;2023-02-18T09:34:14;9.00;99.90
21417;DHT22;10869;52.238;10.716;2023-02-18T09:36:39;9.10;99.90
21417;DHT22;10869;52.238;10.716;2023-02-18T09:39:05;9.10;99.90
21417;DHT22;10869;52.238;10.716;2023-02-18T09:44:23;9.20;99.90
21417;DHT22;10869;52.238;10.716;2023-02-18T09:47:02;9.30;99.90
21417;DHT22;10869;52.238;10.716;2023-02-18T09:49:35;9.30;99.90
21417;DHT22;10869;52.238;10.716;2023-02-18T09:52:18;9.40;99.90
21417;DHT22;10869;52.238;10.716;2023-02-18T09:54:50;9.40;99.90
21417;DHT22;10869;52.238;10.716;2023-02-18T09:57:29;9.50;99.90
21417;DHT22;10869;52.238;10.716;2023-02-18T10:00:04;9.60;99.90
21417;DHT22;10869;52.238;10.716;2023-02-18T10:02:31;9.60;99.90
21417;DHT22;10869;52.238;10.716;2023-02-18T10:05:01;9.60;99.90
21417;DHT22;10869;52.238;10.716;2023-02-18T10:10:49;9.70;99.90
21417;DHT22;10869;52.238;10.716;2023-02-18T10:13:18;9.80;99.90
21417;DHT22;10869;52.238;10.716;2023-02-18T10:15:45;9.90;99.90
21417;DHT22;10869;52.238;10.716;2023-02-18T10:18:22;9.80;99.90
21417;DHT22;10869;52.238;10.716;2023-02-18T10:20:51;9.80;99.90
21417;DHT22;10869;52.238;10.716;2023-02-18T10:23:19;9.90;99.90
21417;DHT22;10869;52.238;10.716;2023-02-18T10:29:16;10.00;99.90
21417;DHT22;10869;52.238;10.716;2023-02-18T10:31:49;10.00;99.90
21417;DHT22;10869;52.238;10.716;2023-02-18T10:45:41;9.90;99.90
21417;DHT22;10869;52.238;10.716;2023-02-18T10:50:45;9.90;99.90
21417;DHT22;10869;52.238;10.716;2023-02-18T10:55:58;9.90;99.90
21417;DHT22;10869;52.238;10.716;2023-02-18T10:58:26;9.90;99.90
21417;DHT22;10869;52.238;10.716;2023-02-18T11:00:52;10.00;99.90
21417;DHT22;10869;52.238;10.716;2023-02-18T11:03:37;10.00;99.90
21417;DHT22;10869;52.238;10.716;2023-02-18T11:06:04;10.00;99.90
21417;DHT22;10869;52.238;10.716;2023-02-18T11:08:42;10.00;99.90
21417;DHT22;10869;52.238;10.716;2023-02-18T11:11:23;10.10;99.90
21417;DHT22;10869;52.238;10.716;2023-02-18T11:14:13;10.10;99.90
21417;DHT22;10869;52.238;10.716;2023-02-18T11:16:45;10.10;99.90
21417;DHT22;10869;52.238;10.716;2023-02-18T11:19:38;10.10;99.90
21417;DHT22;10869;52.238;10.716;2023-02-18T11:22:18;10.10;99.90
21417;DHT22;10869;52.238;10.716;2023-02-18T11:25:28;10.20;99.90
21417;DHT22;10869;52.238;10.716;2023-02-18T11:30:46;10.10;99.90
21417;DHT22;10869;52.238;10.716;2023-02-18T11:33:20;10.10;99.90
21417;DHT22;10869;52.238;10.716;2023-02-18T11:39:25;10.10;99.90
21417;DHT22;10869;52.238;10.716;2023-02-18T11:52:45;10.10;99.90
21417;DHT22;10869;52.238;10.716;2023-02-18T11:55:23;10.80;99.90
21417;DHT22;10869;52.238;10.716;2023-02-18T11:58:09;10.70;99.90
21417;DHT22;10869;52.238;10.716;2023-02-18T12:00:44;10.50;99.90
21417;DHT22;10869;52.238;10.716;2023-02-18T12:05:51;10.20;99.90
21417;DHT22;10869;52.238;10.716;2023-02-18T12:08:27;10.10;99.90
21417;DHT22;10869;52.238;10.716;2023-02-18T12:11:08;10.00;99.90
21417;DHT22;10869;52.238;10.716;2023-02-18T12:13:54;10.00;99.90
21417;DHT22;10869;52.238;10.716;2023-02-18T12:16:41;10.00;99.90
21417;DHT22;10869;52.238;10.716;2023-02-18T12:22:44;9.90;99.90
21417;DHT22;10869;52.238;10.716;2023-02-18T12:32:17;9.90;99.90
21417;DHT22;10869;52.238;10.716;2023-02-18T13:01:21;9.70;99.90
21417;DHT22;10869;52.238;10.716;2023-02-18T13:15:52;9.70;99.90
21417;DHT22;10869;52.238;10.716;2023-02-18T13:18:39;9.70;99.90
21417;DHT22;10869;52.238;10.716;2023-02-18T13:21:12;9.60;99.90
21417;DHT22;10869;52.238;10.716;2023-02-18T13:27:20;9.50;99.90
21417;DHT22;10869;52.238;10.716;2023-02-18T13:39:25;9.50;99.90
21417;DHT22;10869;52.238;10.716;2023-02-18T13:48:41;9.60;99.90
21417;DHT22;10869;52.238;10.716;2023-02-18T13:51:11;9.50;99.90
21417;DHT22;10869;52.238;10.716;2023-02-18T13:57:19;9.40;99.90
21417;DHT22;10869;52.238;10.716;2023-02-18T13:59:56;9.40;99.90
21417;DHT22;10869;52.238;10.716;2023-02-18T14:07:37;9.40;99.90
21417;DHT22;10869;52.238;10.716;2023-02-18T14:26:07;9.30;99.90
21417;DHT22;10869;52.238;10.716;2023-02-18T14:36:35;9.40;99.90
21417;DHT22;10869;52.238;10.716;2023-02-18T14:45:08;9.40;99.90
21417;DHT22;10869;52.238;10.716;2023-02-18T14:50:38;9.30;99.90
21417;DHT22;10869;52.238;10.716;2023-02-18T14:53:14;9.30;99.90
21417;DHT22;10869;52.238;10.716;2023-02-18T14:55:45;9.40;99.90
21417;DHT22;10869;52.238;10.716;2023-02-18T15:01:27;9.40;99.90
21417;DHT22;10869;52.238;10.716;2023-02-18T15:03:54;9.40;99.90
21417;DHT22;10869;52.238;10.716;2023-02-18T15:06:41;9.40;99.90
21417;DHT22;10869;52.238;10.716;2023-02-18T15:09:20;9.40;99.90
21417;DHT22;10869;52.238;10.716;2023-02-18T15:11:50;9.30;99.90
21417;DHT22;10869;52.238;10.716;2023-02-18T15:14:23;9.30;99.90
21417;DHT22;10869;52.238;10.716;2023-02-18T15:16:49;9.30;99.90
21417;DHT22;10869;52.238;10.716;2023-02-18T15:19:17;9.30;99.90
21417;DHT22;10869;52.238;10.716;2023-02-18T15:21:46;9.30;99.90
21417;DHT22;10869;52.238;10.716;2023-02-18T15:24:33;9.30;99.90
21417;DHT22;10869;52.238;10.716;2023-02-18T15:27:02;9.30;99.90
21417;DHT22;10869;52.238;10.716;2023-02-18T15:29:34;9.20;99.90
21417;DHT22;10869;52.238;10.716;2023-02-18T15:32:00;9.20;99.90
21417;DHT22;10869;52.238;10.716;2023-02-18T15:34:37;9.20;99.90
21417;DHT22;10869;52.238;10.716;2023-02-18T15:37:09;9.20;99.90
21417;DHT22;10869;52.238;10.716;2023-02-18T15:39:35;9.20;99.90
21417;DHT22;10869;52.238;10.716;2023-02-18T15:42:30;9.20;99.90
21417;DHT22;10869;52.238;10.716;2023-02-18T15:45:08;9.20;99.90
21417;DHT22;10869;52.238;10.716;2023-02-18T15:47:47;9.20;99.90
21417;DHT22;10869;52.238;10.716;2023-02-18T15:50:19;9.20;99.90
21417;DHT22;10869;52.238;10.716;2023-02-18T15:56:28;9.20;99.90
21417;DHT22;10869;52.238;10.716;2023-02-18T15:59:33;9.20;99.90
21417;DHT22;10869;52.238;10.716;2023-02-18T16:04:41;9.20;99.90
21417;DHT22;10869;52.238;10.716;2023-02-18T16:07:31;9.20;99.90
21417;DHT22;10869;52.238;10.716;2023-02-18T16:10:08;9.20;99.90
21417;DHT22;10869;52.238;10.716;2023-02-18T16:15:41;9.20;99.90
21417;DHT22;10869;52.238;10.716;2023-02-18T16:18:38;9.30;99.90
21417;DHT22;10869;52.238;10.716;2023-02-18T16:24:58;9.20;99.90
21417;DHT22;10869;52.238;10.716;2023-02-18T16:27:46;9.30;99.90
21417;DHT22;10869;52.238;10.716;2023-02-18T16:30:39;9.20;99.90
21417;DHT22;10869;52.238;10.716;2023-02-18T16:33:11;9.20;99.90
21417;DHT22;10869;52.238;10.716;2023-02-18T16:39:00;9.20;99.90
21417;DHT22;10869;52.238;10.716;2023-02-18T16:41:28;9.10;99.90
21417;DHT22;10869;52.238;10.716;2023-02-18T16:44:01;9.10;99.90
21417;DHT22;10869;52.238;10.716;2023-02-18T16:46:31;9.10;99.90
21417;DHT22;10869;52.238;10.716;2023-02-18T16:48:58;9.00;99.90
21417;DHT22;10869;52.238;10.716;2023-02-18T16:51:30;9.00;99.90
21417;DHT22;10869;52.238;10.716;2023-02-18T16:54:10;9.00;99.90
21417;DHT22;10869;52.238;10.716;2023-02-18T16:59:48;9.00;99.90
21417;DHT22;10869;52.238;10.716;2023-02-18T17:02:20;9.00;99.90
21417;DHT22;10869;52.238;10.716;2023-02-18T17:04:51;9.00;99.90
21417;DHT22;10869;52.238;10.716;2023-02-18T17:07:25;9.00;99.90
21417;DHT22;10869;52.238;10.716;2023-02-18T17:10:00;9.00;99.90
21417;DHT22;10869;52.238;10.716;2023-02-18T17:12:28;9.10;99.90
21417;DHT22;10869;52.238;10.716;2023-02-18T17:15:32;9.00;99.90
21417;DHT22;10869;52.238;10.716;2023-02-18T17:18:02;9.10;99.90
21417;DHT22;10869;52.238;10.716;2023-02-18T17:20:31;9.10;99.90
21417;DHT22;10869;52.238;10.716;2023-02-18T17:23:00;9.10;99.90
21417;DHT22;10869;52.238;10.716;2023-02-18T17:25:40;9.10;99.90
21417;DHT22;10869;52.238;10.716;2023-02-18T17:28:07;9.10;99.90
21417;DHT22;10869;52.238;10.716;2023-02-18T17:30:38;9.10;99.90
21417;DHT22;10869;52.238;10.716;2023-02-18T17:33:09;9.10;99.90
21417;DHT22;10869;52.238;10.716;2023-02-18T17:35:40;9.10;99.90
21417;DHT22;10869;52.238;10.716;2023-02-18T17:38:11;9.10;99.90
21417;DHT22;10869;52.238;10.716;2023-02-18T17:40:48;9.20;99.90
21417;DHT22;10869;52.238;10.716;2023-02-18T17:43:16;9.20;99.90
21417;DHT22;10869;52.238;10.716;2023-02-18T17:45:53;9.20;99.90
21417;DHT22;10869;52.238;10.716;2023-02-18T17:48:19;9.20;99.90
21417;DHT22;10869;52.238;10.716;2023-02-18T17:50:45;9.20;99.90
21417;DHT22;10869;52.238;10.716;2023-02-18T17:53:12;9.20;99.90
21417;DHT22;10869;52.238;10.716;2023-02-18T17:55:39;9.10;99.90
21417;DHT22;10869;52.238;10.716;2023-02-18T18:01:27;9.10;99.90
21417;DHT22;10869;52.238;10.716;2023-02-18T18:03:53;9.00;99.90
21417;DHT22;10869;52.238;10.716;2023-02-18T18:13:23;8.90;99.90
21417;DHT22;10869;52.238;10.716;2023-02-18T18:19:11;8.80;99.90
21417;DHT22;10869;52.238;10.716;2023-02-18T18:24:59;8.80;99.90
21417;DHT22;10869;52.238;10.716;2023-02-18T18:27:30;8.80;99.90
21417;DHT22;10869;52.238;10.716;2023-02-18T18:29:56;8.80;99.90
21417;DHT22;10869;52.238;10.716;2023-02-18T18:32:22;8.80;99.90
21417;DHT22;10869;52.238;10.716;2023-02-18T18:34:48;8.80;99.90
21417;DHT22;10869;52.238;10.716;2023-02-18T18:37:13;8.80;99.90
21417;DHT22;10869;52.238;10.716;2023-02-18T18:39:39;8.80;99.90
21417;DHT22;10869;52.238;10.716;2023-02-18T18:44:53;8.80;99.90
21417;DHT22;10869;52.238;10.716;2023-02-18T18:50:56;8.80;99.90
21417;DHT22;10869;52.238;10.716;2023-02-18T18:53:24;8.80;99.90
21417;DHT22;10869;52.238;10.716;2023-02-18T18:55:56;8.80;99.90
21417;DHT22;10869;52.238;10.716;2023-02-18T18:58:25;8.80;99.90
21417;DHT22;10869;52.238;10.716;2023-02-18T19:00:57;8.80;99.90
21417;DHT22;10869;52.238;10.716;2023-02-18T19:06:47;8.90;99.90
21417;DHT22;10869;52.238;10.716;2023-02-18T19:16:25;8.90;99.90
21417;DHT22;10869;52.238;10.716;2023-02-18T19:18:52;8.80;99.90
21417;DHT22;10869;52.238;10.716;2023-02-18T19:24:32;8.80;99.90
21417;DHT22;10869;52.238;10.716;2023-02-18T19:26:57;8.80;99.90
21417;DHT22;10869;52.238;10.716;2023-02-18T19:29:23;8.90;99.90
21417;DHT22;10869;52.238;10.716;2023-02-18T19:31:49;8.90;99.90
21417;DHT22;10869;52.238;10.716;2023-02-18T19:34:15;8.90;99.90
21417;DHT22;10869;52.238;10.716;2023-02-18T19:36:41;8.90;99.90
21417;DHT22;10869;52.238;10.716;2023-02-18T19:39:09;8.90;99.90
21417;DHT22;10869;52.238;10.716;2023-02-18T19:41:35;8.90;99.90
21417;DHT22;10869;52.238;10.716;2023-02-18T19:44:01;8.90;99.90
21417;DHT22;10869;52.238;10.716;2023-02-18T19:46:27;8.90;99.90
21417;DHT22;10869;52.238;10.716;2023-02-18T19:48:52;8.90;99.90
21417;DHT22;10869;52.238;10.716;2023-02-18T19:54:31;8.90;99.90
21417;DHT22;10869;52.238;10.716;2023-02-18T19:57:20;8.90;99.90
21417;DHT22;10869;52.238;10.716;2023-02-18T19:59:52;8.80;99.90
21417;DHT22;10869;52.238;10.716;2023-02-18T20:02:20;8.90;99.90
21417;DHT22;10869;52.238;10.716;2023-02-18T20:04:46;8.80;99.90
21417;DHT22;10869;52.238;10.716;2023-02-18T20:07:14;8.80;99.90
21417;DHT22;10869;52.238;10.716;2023-02-18T20:09:39;8.80;99.90
21417;DHT22;10869;52.238;10.716;2023-02-18T20:14:55;8.80;99.90
21417;DHT22;10869;52.238;10.716;2023-02-18T20:17:21;8.80;99.90
21417;DHT22;10869;52.238;10.716;2023-02-18T20:19:46;8.80;99.90
21417;DHT22;10869;52.238;10.716;2023-02-18T20:22:12;8.80;99.90
21417;DHT22;10869;52.238;10.716;2023-02-18T20:24:39;8.80;99.90
21417;DHT22;10869;52.238;10.716;2023-02-18T20:27:06;8.80;99.90
21417;DHT22;10869;52.238;10.716;2023-02-18T20:32:54;8.80;99.90
21417;DHT22;10869;52.238;10.716;2023-02-18T20:35:28;8.80;99.90
21417;DHT22;10869;52.238;10.716;2023-02-18T20:37:54;8.80;99.90
21417;DHT22;10869;52.238;10.716;2023-02-18T20:40:20;8.80;99.90
21417;DHT22;10869;52.238;10.716;2023-02-18T20:49:25;8.70;99.90
21417;DHT22;10869;52.238;10.716;2023-02-18T20:51:51;8.70;99.90
21417;DHT22;10869;52.238;10.716;2023-02-18T20:54:18;8.60;99.90
21417;DHT22;10869;52.238;10.716;2023-02-18T20:56:48;8.60;99.90
21417;DHT22;10869;52.238;10.716;2023-02-18T20:59:17;8.60;99.90
21417;DHT22;10869;52.238;10.716;2023-02-18T21:01:44;8.60;99.90
21417;DHT22;10869;52.238;10.716;2023-02-18T21:07:32;8.50;99.90
21417;DHT22;10869;52.238;10.716;2023-02-18T21:09:58;8.50;99.90
21417;DHT22;10869;52.238;10.716;2023-02-18T21:19:14;8.50;99.90
21417;DHT22;10869;52.238;10.716;2023-02-18T21:21:41;8.50;99.90
21417;DHT22;10869;52.238;10.716;2023-02-18T21:24:07;8.40;99.90
21417;DHT22;10869;52.238;10.716;2023-02-18T21:26:33;8.50;99.90
21417;DHT22;10869;52.238;10.716;2023-02-18T21:32:21;8.50;99.90
21417;DHT22;10869;52.238;10.716;2023-02-18T21:34:52;8.50;99.90
21417;DHT22;10869;52.238;10.716;2023-02-18T21:40:39;8.50;99.90
21417;DHT22;10869;52.238;10.716;2023-02-18T21:43:05;8.50;99.90
21417;DHT22;10869;52.238;10.716;2023-02-18T21:45:32;8.50;99.90
21417;DHT22;10869;52.238;10.716;2023-02-18T21:47:58;8.60;99.90
21417;DHT22;10869;52.238;10.716;2023-02-18T21:50:43;8.50;99.90
21417;DHT22;10869;52.238;10.716;2023-02-18T21:53:09;8.60;99.90
21417;DHT22;10869;52.238;10.716;2023-02-18T21:55:35;8.60;99.90
21417;DHT22;10869;52.238;10.716;2023-02-18T21:58:01;8.60;99.90
21417;DHT22;10869;52.238;10.716;2023-02-18T22:00:26;8.50;99.90
21417;DHT22;10869;52.238;10.716;2023-02-18T22:02:53;8.50;99.90
21417;DHT22;10869;52.238;10.716;2023-02-18T22:05:20;8.50;99.90
21417;DHT22;10869;52.238;10.716;2023-02-18T22:07:50;8.40;99.90
21417;DHT22;10869;52.238;10.716;2023-02-18T22:10:16;8.40;99.90
21417;DHT22;10869;52.238;10.716;2023-02-18T22:12:43;8.40;99.90
21417;DHT22;10869;52.238;10.716;2023-02-18T22:15:09;8.30;99.90
21417;DHT22;10869;52.238;10.716;2023-02-18T22:17:35;8.30;99.90
21417;DHT22;10869;52.238;10.716;2023-02-18T22:20:01;8.20;99.90
21417;DHT22;10869;52.238;10.716;2023-02-18T22:22:27;8.20;99.90
21417;DHT22;10869;52.238;10.716;2023-02-18T22:24:52;8.20;99.90
21417;DHT22;10869;52.238;10.716;2023-02-18T22:27:18;8.10;99.90
21417;DHT22;10869;52.238;10.716;2023-02-18T22:29:44;8.10;99.90
21417;DHT22;10869;52.238;10.716;2023-02-18T22:32:12;8.10;99.90
21417;DHT22;10869;52.238;10.716;2023-02-18T22:34:38;8.10;99.90
21417;DHT22;10869;52.238;10.716;2023-02-18T22:37:04;8.10;99.90
21417;DHT22;10869;52.238;10.716;2023-02-18T22:39:30;8.10;99.90
21417;DHT22;10869;52.238;10.716;2023-02-18T22:41:56;8.10;99.90
21417;DHT22;10869;52.238;10.716;2023-02-18T22:44:21;8.10;99.90
21417;DHT22;10869;52.238;10.716;2023-02-18T22:46:48;8.10;99.90
21417;DHT22;10869;52.238;10.716;2023-02-18T22:49:14;8.10;99.90
21417;DHT22;10869;52.238;10.716;2023-02-18T22:51:42;8.10;99.90
21417;DHT22;10869;52.238;10.716;2023-02-18T22:54:13;8.10;99.90
21417;DHT22;10869;52.238;10.716;2023-02-18T22:56:40;8.10;99.90
21417;DHT22;10869;52.238;10.716;2023-02-18T22:59:06;8.10;99.90
21417;DHT22;10869;52.238;10.716;2023-02-18T23:01:35;8.10;99.90
21417;DHT22;10869;52.238;10.716;2023-02-18T23:04:12;8.10;99.90
21417;DHT22;10869;52.238;10.716;2023-02-18T23:06:40;8.10;99.90
21417;DHT22;10869;52.238;10.716;2023-02-18T23:09:07;8.10;99.90
21417;DHT22;10869;52.238;10.716;2023-02-18T23:11:33;8.10;99.90
21417;DHT22;10869;52.238;10.716;2023-02-18T23:13:59;8.10;99.90
21417;DHT22;10869;52.238;10.716;2023-02-18T23:17:03;8.10;99.90
21417;DHT22;10869;52.238;10.716;2023-02-18T23:19:48;8.10;99.90
21417;DHT22;10869;52.238;10.716;2023-02-18T23:22:17;8.10;99.90
21417;DHT22;10869;52.238;10.716;2023-02-18T23:24:44;8.10;99.90
21417;DHT22;10869;52.238;10.716;2023-02-18T23:27:13;8.00;99.90
21417;DHT22;10869;52.238;10.716;2023-02-18T23:29:39;8.00;99.90
21417;DHT22;10869;52.238;10.716;2023-02-18T23:32:05;8.00;99.90
21417;DHT22;10869;52.238;10.716;2023-02-18T23:34:31;7.90;99.90
21417;DHT22;10869;52.238;10.716;2023-02-18T23:36:57;7.90;99.90
21417;DHT22;10869;52.238;10.716;2023-02-18T23:39:23;7.90;99.90
21417;DHT22;10869;52.238;10.716;2023-02-18T23:41:50;7.90;99.90
21417;DHT22;10869;52.238;10.716;2023-02-18T23:44:18;7.90;99.90
21417;DHT22;10869;52.238;10.716;2023-02-18T23:46:44;7.90;99.90
21417;DHT22;10869;52.238;10.716;2023-02-18T23:49:18;7.90;99.90
21417;DHT22;10869;52.238;10.716;2023-02-18T23:51:44;7.90;99.90
21417;DHT22;10869;52.238;10.716;2023-02-18T23:54:10;7.90;99.90
21417;DHT22;10869;52.238;10.716;2023-02-18T23:56:36;7.90;99.90
21417;DHT22;10869;52.238;10.716;2023-02-18T23:59:03;7.90;99.90
